Flight Track Log - Related Links

Times and Time Zones

All times are in EDT time to prevent confusion due to time zone crossing. See the ASQ6115 flight status page for this flight to view local times or setup timezone preferences in your user account.

Time Position Orientation Groundspeed Altitude Reporting Facility
EDT Latitude Longitude Course Direction KTS MPH feet Rate Location/Type
Tue 08:35:12 AM 37.6306 -97.4347 North 149 171 2,200  Level Kansas City Center
Tue 08:36:12 AM 37.6142 -97.4819 246° West 191 220 4,200 1,768 Climbing Kansas City Center
Tue 08:37:04 AM 37.6706 -97.4894 354° North 250 288 5,500 2,177 Climbing Kansas City Center
Tue 08:38:00 AM 37.9776 -97.3882 North  Level FlightAware Approximate
Tue 08:38:05 AM 37.7453 -97.4714 11° North 272 313 8,300  Level Kansas City Center
Tue 08:39:00 AM 38.0638 -97.3774 North  Level FlightAware Approximate
Tue 08:39:07 AM 37.8247 -97.4536 10° North 293 337 10,300  Level Kansas City Center
Tue 08:40:00 AM 38.1500 -97.3667 North  Level FlightAware Approximate
Tue 08:40:08 AM 37.9133 -97.4314 11° North 325 374 11,700  Level Kansas City Center
Tue 08:41:10 AM 38.0083 -97.4089 11° North 347 399 13,300 1,610 Climbing Kansas City Center
Tue 08:42:11 AM 38.1069 -97.3847 11° North 360 414 15,000 2,195 Climbing Kansas City Center
Tue 08:43:13 AM 38.2114 -97.3194 26° Northeast 353 406 17,800 2,341 Climbing Kansas City Center
Tue 08:44:14 AM 38.2611 -97.2147 59° Northeast 345 397 19,800 1,707 Climbing Kansas City Center
Tue 08:45:16 AM 38.3094 -97.1033 61° Northeast 357 411 21,300 1,355 Climbing Kansas City Center
Tue 08:46:18 AM 38.3594 -96.9867 61° Northeast 372 428 22,600 1,366 Climbing Kansas City Center
Tue 08:47:19 AM 38.4100 -96.8669 62° Northeast 382 440 24,100 1,610 Climbing Kansas City Center
Tue 08:48:21 AM 38.4656 -96.7375 61° Northeast 381 438 25,900 1,610 Climbing Kansas City Center
Tue 08:49:22 AM 38.5139 -96.6233 62° Northeast 382 440 27,400 1,659 Climbing Kansas City Center
Tue 08:50:24 AM 38.5703 -96.4881 62° Northeast 385 443 29,300 1,512 Climbing Kansas City Center
Tue 08:51:25 AM 38.6189 -96.3719 62° Northeast 387 445 30,500 1,171 Climbing Kansas City Center
Tue 08:52:27 AM 38.6686 -96.2542 62° Northeast 392 451 31,700 1,258 Climbing Kansas City Center
Tue 08:53:29 AM 38.7275 -96.1117 62° Northeast 404 465 33,100 1,317 Climbing Kansas City Center
Tue 08:54:30 AM 38.7778 -95.9892 62° Northeast 405 466 34,400 927 Climbing Kansas City Center
Tue 08:55:32 AM 38.8375 -95.8450 62° Northeast 410 472 35,000 293 Climbing Kansas City Center
Tue 08:56:33 AM 38.8925 -95.7106 62° Northeast 442 509 35,000  Level Kansas City Center
Tue 08:57:35 AM 38.9614 -95.5439 62° Northeast 475 547 35,000  Level Kansas City Center
Tue 08:58:36 AM 39.0261 -95.3817 63° Northeast 494 568 35,000  Level Kansas City Center
Tue 08:59:38 AM 39.0919 -95.2186 62° Northeast 513 590 35,000  Level Kansas City Center
Tue 09:00:39 AM 39.1542 -95.0614 63° Northeast 513 590 35,000  Level Kansas City Center
Tue 09:01:41 AM 39.2244 -94.8883 62° Northeast 495 570 35,000  Level Kansas City Center
Tue 09:02:42 AM 39.2850 -94.7378 63° Northeast 496 571 35,000  Level Kansas City Center
Tue 09:03:44 AM 39.3464 -94.5897 62° Northeast 495 570 35,000  Level Kansas City Center
Tue 09:04:45 AM 39.4169 -94.4164 62° Northeast 487 560 35,000  Level Kansas City Center
Tue 09:05:47 AM 39.4761 -94.2700 62° Northeast 482 555 35,000  Level Kansas City Center
Tue 09:06:49 AM 39.5450 -94.0989 62° Northeast 478 550 35,000  Level Kansas City Center
Tue 09:07:50 AM 39.6036 -93.9533 62° Northeast 476 548 35,000  Level Kansas City Center
Tue 09:08:52 AM 39.6728 -93.7800 63° Northeast 486 559 35,000  Level Kansas City Center
Tue 09:09:53 AM 39.7350 -93.6197 63° Northeast 495 570 35,000  Level Kansas City Center
Tue 09:10:55 AM 39.7964 -93.4611 63° Northeast 496 571 35,000  Level Kansas City Center
Tue 09:11:57 AM 39.8581 -93.3083 62° Northeast 487 560 35,000  Level Kansas City Center
Tue 09:12:58 AM 39.9164 -93.1581 63° Northeast 472 543 35,000  Level Kansas City Center
Tue 09:14:00 AM 39.9756 -93.0061 63° Northeast 475 547 35,000  Level Kansas City Center
Tue 09:15:01 AM 40.0350 -92.8497 64° Northeast 483 556 35,000  Level Kansas City Center
Tue 09:16:03 AM 40.1058 -92.6625 64° Northeast 472 543 35,000  Level Kansas City Center
Tue 09:17:05 AM 40.1606 -92.5128 64° Northeast 477 549 35,000  Level Kansas City Center
Tue 09:18:06 AM 40.2189 -92.3625 63° Northeast 488 562 35,000  Level Kansas City Center
Tue 09:19:08 AM 40.2744 -92.2050 65° Northeast 493 567 35,000  Level Kansas City Center
Tue 09:20:10 AM 40.3442 -92.0100 65° Northeast 496 571 35,000  Level Kansas City Center
Tue 09:21:12 AM 40.4022 -91.8456 65° Northeast 499 574 35,000 -49 Level Kansas City Center
Tue 09:22:13 AM 40.4597 -91.6817 65° Northeast 501 577 34,900 -732 Descending Kansas City Center
Tue 09:22:34 AM 40.4817 -91.6161 66° East 498 573 34,000 -1,373 Descending Chicago Center
Tue 09:23:36 AM 40.5350 -91.4586 66° East 480 552 33,000 -583 Descending Chicago Center
Tue 09:24:17 AM 40.5647 -91.3703 66° East 463 533 33,000  Level Kansas City Center
Tue 09:25:19 AM 40.6167 -91.2192 66° East 442 509 33,000  Level Kansas City Center
Tue 09:25:41 AM 40.6375 -91.1586 66° East 444 511 33,000  Level Chicago Center
Tue 09:26:43 AM 40.6889 -91.0097 65° Northeast 446 513 33,000  Level Chicago Center
Tue 09:27:45 AM 40.7392 -90.8606 66° East 445 512 33,000  Level Chicago Center
Tue 09:28:47 AM 40.7456 -90.6694 87° East 447 514 33,000  Level Chicago Center
Tue 09:29:49 AM 40.7247 -90.5044 99° East 456 525 33,000 -145 Level Chicago Center
Tue 09:30:51 AM 40.7044 -90.3447 99° East 446 513 32,700 -677 Descending Chicago Center
Tue 09:31:53 AM 40.7233 -90.1839 81° East 438 504 31,600 -1,113 Descending Chicago Center
Tue 09:32:55 AM 40.8014 -90.0661 49° Northeast 430 495 30,400 -1,113 Descending Chicago Center
Tue 09:33:57 AM 40.8800 -89.9553 47° Northeast 419 482 29,300 -1,306 Descending Chicago Center
Tue 09:34:59 AM 40.9811 -89.8281 44° Northeast 413 475 27,700 -1,355 Descending Chicago Center
Tue 09:36:01 AM 41.0531 -89.7314 45° Northeast 430 495 26,500 -1,500 Descending Chicago Center
Tue 09:37:03 AM 41.1603 -89.5833 46° Northeast 458 527 24,600 -2,304 Descending Chicago Center
Tue 09:38:06 AM 41.2219 -89.4372 61° Northeast 452 520 21,700 -2,784 Descending Chicago Center
Tue 09:39:08 AM 41.2792 -89.2967 62° Northeast 436 502 18,800 -2,661 Descending Chicago Center
Tue 09:40:10 AM 41.3375 -89.1447 63° Northeast 414 476 16,200 -2,323 Descending Chicago Center
Tue 09:41:12 AM 41.3914 -89.0131 61° Northeast 406 467 14,000 -2,032 Descending Chicago Center
Tue 09:42:14 AM 41.4389 -88.8897 63° Northeast 380 437 12,000 -1,452 Descending Chicago Center
Tue 09:43:16 AM 41.4881 -88.7686 62° Northeast 373 429 11,000 -484 Descending Chicago Center
Tue 09:44:18 AM 41.5317 -88.6572 62° Northeast 344 396 11,000 -194 Level Chicago Center
Tue 09:45:20 AM 41.5758 -88.5442 62° Northeast 343 395 10,600 -1,065 Descending Chicago Center
Tue 09:46:22 AM 41.6286 -88.4292 58° Northeast 304 350 8,800 -1,597 Descending Chicago Center
Tue 09:47:24 AM 41.6775 -88.3481 51° Northeast 284 327 7,300 -871 Descending Chicago Center
Tue 09:48:26 AM 41.7503 -88.3325 North 280 322 7,000 -240 Descending Chicago Center
Tue 09:49:29 AM 41.8286 -88.3361 358° North 281 323 6,800 -720 Descending Chicago Center
Tue 09:50:31 AM 41.9028 -88.3569 348° North 278 320 5,500 -1,355 Descending Chicago Center
Tue 09:51:33 AM 41.9531 -88.3175 30° Northeast 243 280 4,000 -726 Descending Chicago Center
Tue 09:52:35 AM 41.9678 -88.2336 77° East 216 249 4,000  Level Chicago Center
Tue 09:53:37 AM 41.9675 -88.1653 90° East 193 222 4,000 -429 Level Chicago Center
Tue 09:54:27 AM 41.9667 -88.1000 91° East 180 207 3,200 -960 Descending Chicago TRACON

Login

Don't have an account? Register now (free) for customized features, flight alerts, and more!